Harris, Missouri
Current Conditions -  °F | °C
As of 11:50 AM on Sunday 21 Dec 2014 (Local Time) from KTVK Reporting Station
Overcast Overcast  
Wind Chill: 33°   Ceiling: 1300
Heat Index: 41°   Visibility: 10mi
Dew Point: 39°   Wind: 16mph
Humidity: 93%   Direction: 160°SSE
Pressure: 29.96"   Gusts: NA
Location:  40.31°N, 93.35°W
Report Text: KTVK 211750Z AUTO 16014KT 10SM OVC013 05/04 A2996 RMK AO2
Loading
Personal Weather Stations






























Interactive Weather Map New forecast layout! Learn more

10-Day Weather Forecast

Advertisements
Track Severe Weather on mobile